Time;durP1;ratioP1;P1;durP2;ratioP2;P2;SDS_P1;SDS_P2;PMS_P1;PMS_P2;Temp;Humidity;BMP_temperature;BMP_pressure;BME280_temperature;BME280_humidity;BME280_pressure;Samples;Min_cycle;Max_cycle;Signal;HPM_P1;HPM_P2
2022/11/01 00:02:06;;;;;;;114.25;46.28;;;;;;;11.18;100.00;155332.81;4991462;28;20042;-75
2022/11/01 00:04:32;;;;;;;113.05;47.33;;;;;;;11.17;100.00;155331.53;4987780;28;20080;-75
2022/11/01 00:06:58;;;;;;;109.88;46.88;;;;;;;11.16;100.00;155328.94;4987339;28;20105;-74
2022/11/01 00:09:23;;;;;;;109.05;45.70;;;;;;;11.20;100.00;155339.19;4980954;28;20120;-75
2022/11/01 00:11:49;;;;;;;108.43;45.58;;;;;;;11.19;100.00;155336.66;4972973;28;20033;-73
2022/11/01 00:14:17;;;;;;;102.53;43.13;;;;;;;11.24;100.00;155348.19;4971314;28;20034;-74
2022/11/01 00:16:43;;;;;;;104.38;44.95;;;;;;;11.24;100.00;155348.19;4990556;28;20120;-73
2022/11/01 00:19:09;;;;;;;101.90;44.78;;;;;;;11.30;100.00;155364.91;4971405;28;20038;-74
2022/11/01 00:21:35;;;;;;;93.45;42.45;;;;;;;11.30;100.00;155364.91;4990577;28;20041;-73
2022/11/01 00:24:01;;;;;;;100.13;44.20;;;;;;;11.27;100.00;155355.91;5003640;28;20038;-74
2022/11/01 00:26:27;;;;;;;100.15;43.05;;;;;;;11.29;100.00;155362.31;4990664;28;20037;-74
2022/11/01 00:28:53;;;;;;;98.55;43.38;;;;;;;11.30;100.00;155364.91;4990317;28;20099;-73
2022/11/01 00:31:20;;;;;;;97.68;43.72;;;;;;;11.30;100.00;155364.91;4990053;28;20645;-74
2022/11/01 00:33:46;;;;;;;93.53;42.22;;;;;;;11.32;100.00;155368.75;4988826;28;20129;-73
2022/11/01 00:36:16;;;;;;;93.90;43.97;;;;;;;11.36;100.00;155379.00;4986549;28;20120;-73
2022/11/01 00:38:42;;;;;;;87.85;42.20;;;;;;;11.35;100.00;155376.44;4964222;28;20069;-74
2022/11/01 00:41:08;;;;;;;87.53;39.92;;;;;;;11.40;100.00;155388.00;4986204;28;20635;-74
2022/11/01 00:43:35;;;;;;;84.40;40.15;;;;;;;11.42;100.00;155393.13;4972927;28;20458;-74
2022/11/01 00:46:02;;;;;;;81.68;41.25;;;;;;;11.45;100.00;155402.13;4966370;28;20129;-74
2022/11/01 00:48:29;;;;;;;81.90;39.13;;;;;;;11.49;100.00;155411.13;4989662;28;20038;-72
2022/11/01 00:50:54;;;;;;;82.25;40.22;;;;;;;11.46;100.00;155403.41;4990577;28;20137;-74
2022/11/01 00:53:20;;;;;;;76.40;38.63;;;;;;;11.51;100.00;155416.25;4991677;28;20041;-73
2022/11/01 00:55:46;;;;;;;78.00;38.45;;;;;;;11.49;100.00;155412.38;4993211;28;20034;-75
2022/11/01 00:58:13;;;;;;;74.35;36.63;;;;;;;11.57;100.00;155431.63;4969157;28;20053;-75
2022/11/01 01:00:38;;;;;;;67.60;37.38;;;;;;;11.57;100.00;155430.38;4977844;28;20034;-74
2022/11/01 01:03:05;;;;;;;69.60;36.78;;;;;;;11.58;100.00;155434.19;4975849;28;20068;-74
2022/11/01 01:05:33;;;;;;;71.07;37.15;;;;;;;11.58;100.00;155434.19;4993208;28;20041;-74
2022/11/01 01:07:59;;;;;;;68.55;37.72;;;;;;;11.56;100.00;155429.06;5005734;28;20597;-74
2022/11/01 01:10:25;;;;;;;63.30;35.67;;;;;;;11.60;100.00;155439.34;4992356;28;20502;-73
2022/11/01 01:12:51;;;;;;;70.88;36.47;;;;;;;11.63;100.00;155447.03;4991818;28;20789;-74
2022/11/01 01:15:17;;;;;;;62.78;35.65;;;;;;;11.65;100.00;155450.91;4997943;28;20037;-74
2022/11/01 01:17:43;;;;;;;65.80;35.95;;;;;;;11.67;100.00;155456.03;4975526;28;20038;-74
2022/11/01 01:20:10;;;;;;;65.82;36.05;;;;;;;11.70;100.00;155463.75;4971006;28;20084;-74
2022/11/01 01:22:35;;;;;;;70.55;35.17;;;;;;;11.68;100.00;155458.63;5008655;28;20072;-75
2022/11/01 01:25:01;;;;;;;63.13;34.78;;;;;;;11.70;100.00;155463.75;5004088;28;20068;-75
2022/11/01 01:27:27;;;;;;;63.63;34.25;;;;;;;11.68;100.00;155459.88;5006175;28;20042;-75
2022/11/01 01:29:52;;;;;;;61.17;34.35;;;;;;;11.72;100.00;155468.88;5008692;28;20041;-74
2022/11/01 01:32:21;;;;;;;64.75;35.63;;;;;;;11.78;100.00;155483.00;4963286;28;20494;-75
2022/11/01 01:34:47;;;;;;;63.47;35.88;;;;;;;11.75;100.00;155476.53;5000363;28;20833;-75
2022/11/01 01:37:14;;;;;;;63.67;35.22;;;;;;;11.76;100.00;155477.88;5024324;28;20053;-75
2022/11/01 01:39:39;;;;;;;65.03;35.70;;;;;;;11.80;100.00;155488.13;4992077;28;20057;-74
2022/11/01 01:42:33;;;;;;;67.85;35.50;;;;;;;11.81;100.00;155492.00;5007392;28;20519;-74
2022/11/01 01:44:58;;;;;;;71.20;35.97;;;;;;;11.82;100.00;155494.53;4978926;28;20046;-74
2022/11/01 01:47:27;;;;;;;66.63;35.75;;;;;;;11.83;100.00;155495.84;4960197;28;20038;-73
2022/11/01 01:50:15;;;;;;;65.80;36.47;;;;;;;11.80;100.00;155489.41;5005871;28;20484;-74
2022/11/01 01:52:47;;;;;;;70.32;36.67;;;;;;;11.83;100.00;155495.84;5001594;28;20037;-74
2022/11/01 01:55:17;;;;;;;70.10;36.70;;;;;;;11.92;100.00;155517.69;4992503;28;20476;-74
2022/11/01 01:57:43;;;;;;;72.47;38.28;;;;;;;11.87;100.00;155507.38;4974995;28;20471;-74
2022/11/01 02:00:10;;;;;;;77.43;39.40;;;;;;;11.86;100.00;155504.78;4991568;28;20117;-73
2022/11/01 02:02:41;;;;;;;78.43;42.03;;;;;;;11.89;100.00;155511.25;5008643;28;20033;-74
2022/11/01 02:05:13;;;;;;;78.03;41.10;;;;;;;11.95;100.00;155525.41;4988344;28;20034;-76
2022/11/01 02:07:40;;;;;;;82.22;40.20;;;;;;;11.92;100.00;155517.69;4975089;28;20066;-76
2022/11/01 02:10:07;;;;;;;85.20;43.10;;;;;;;11.96;100.00;155529.28;5007146;28;20037;-74
2022/11/01 02:12:35;;;;;;;90.38;42.85;;;;;;;11.91;100.00;155516.44;4997831;28;20034;-74
2022/11/01 02:15:03;;;;;;;92.47;43.45;;;;;;;11.92;100.00;155518.97;4980476;28;20061;-74
2022/11/01 02:17:50;;;;;;;85.15;43.95;;;;;;;11.95;100.00;155525.41;4964455;28;20092;-74
2022/11/01 02:20:31;;;;;;;89.65;44.15;;;;;;;11.98;100.00;155533.09;5007091;28;20034;-74
2022/11/01 02:23:21;;;;;;;85.95;45.13;;;;;;;12.01;100.00;155542.09;4991058;28;20095;-76
2022/11/01 02:26:21;;;;;;;88.80;45.00;;;;;;;12.01;100.00;155540.81;4988280;28;20799;-74
2022/11/01 02:29:12;;;;;;;94.63;47.13;;;;;;;11.99;100.00;155536.94;5006406;28;20034;-75
2022/11/01 02:31:47;;;;;;;96.47;47.30;;;;;;;12.06;100.00;155553.66;5000505;28;20105;-74
2022/11/01 02:34:25;;;;;;;95.30;47.38;;;;;;;12.08;100.00;155558.81;4988910;28;20050;-75
2022/11/01 02:36:59;;;;;;;92.55;46.58;;;;;;;12.07;100.00;155557.53;4991245;28;20044;-74
2022/11/01 02:39:33;;;;;;;96.35;48.83;;;;;;;12.12;100.00;155569.06;4997277;28;20040;-74
2022/11/01 02:42:20;;;;;;;91.65;48.03;;;;;;;12.10;100.00;155562.66;4972389;28;20034;-74
2022/11/01 02:44:56;;;;;;;100.13;49.60;;;;;;;12.15;100.00;155575.47;4987909;28;20033;-75
2022/11/01 02:47:23;;;;;;;109.00;51.13;;;;;;;12.13;100.00;155571.66;4990907;28;20180;-75
2022/11/01 02:49:52;;;;;;;106.00;52.58;;;;;;;12.16;100.00;155578.06;5003430;28;20034;-74
2022/11/01 02:52:24;;;;;;;108.95;52.75;;;;;;;12.12;100.00;155569.06;4989845;28;20049;-74
2022/11/01 02:55:02;;;;;;;101.38;49.70;;;;;;;12.20;100.00;155589.59;4990265;28;20049;-74
2022/11/01 02:57:39;;;;;;;104.55;50.50;;;;;;;12.19;100.00;155587.06;4991376;28;20037;-74
2022/11/01 03:00:20;;;;;;;104.68;51.03;;;;;;;12.21;100.00;155592.19;4958920;28;20046;-75
2022/11/01 03:02:46;;;;;;;105.80;50.90;;;;;;;12.25;100.00;155602.44;4992469;28;20128;-75
2022/11/01 03:05:20;;;;;;;105.20;51.03;;;;;;;12.24;100.00;155599.91;5004467;28;20447;-75
2022/11/01 03:07:51;;;;;;;98.00;50.42;;;;;;;12.29;100.00;155610.19;4974397;28;20077;-75
2022/11/01 03:10:19;;;;;;;103.35;50.45;;;;;;;12.32;100.00;155617.84;5006603;28;20041;-75
2022/11/01 03:13:12;;;;;;;99.25;50.22;;;;;;;12.30;100.00;155614.03;4991058;28;20081;-75
2022/11/01 03:15:45;;;;;;;102.57;51.22;;;;;;;12.33;100.00;155621.72;5014442;28;20034;-73
2022/11/01 03:18:15;;;;;;;101.80;51.38;;;;;;;12.36;100.00;155629.44;5005903;28;20042;-74
2022/11/01 03:20:55;;;;;;;102.78;50.88;;;;;;;12.36;100.00;155628.16;5008346;28;20109;-75
2022/11/01 03:23:37;;;;;;;104.50;49.70;;;;;;;12.36;100.00;155629.44;4988822;28;20066;-72
2022/11/01 03:26:10;;;;;;;97.00;50.15;;;;;;;12.35;100.00;155625.56;5005756;28;20029;-74
2022/11/01 03:28:47;;;;;;;101.50;51.20;;;;;;;12.37;100.00;155630.72;5006583;28;20057;-74
2022/11/01 03:31:20;;;;;;;102.50;50.88;;;;;;;12.35;100.00;155626.84;4989884;28;20491;-76
2022/11/01 03:33:58;;;;;;;106.45;53.33;;;;;;;12.34;100.00;155624.31;4990026;28;20140;-75
2022/11/01 03:36:30;;;;;;;100.43;51.58;;;;;;;12.32;100.00;155617.84;4997781;28;20045;-75
2022/11/01 03:39:05;;;;;;;99.85;51.30;;;;;;;12.37;100.00;155630.72;5007490;28;20052;-75
2022/11/01 03:41:35;;;;;;;103.63;51.08;;;;;;;12.36;100.00;155629.44;4999071;28;20038;-74
2022/11/01 03:44:01;;;;;;;96.50;49.97;;;;;;;12.37;100.00;155631.97;4983010;28;20042;-74
2022/11/01 03:46:27;;;;;;;103.90;51.13;;;;;;;12.39;100.00;155635.84;5006050;28;20068;-73
2022/11/01 03:48:56;;;;;;;102.85;51.65;;;;;;;12.37;100.00;155631.97;5006587;28;20061;-75
2022/11/01 03:51:21;;;;;;;102.65;50.67;;;;;;;12.38;100.00;155634.56;4983246;28;20127;-74
2022/11/01 03:53:47;;;;;;;96.15;49.92;;;;;;;12.39;100.00;155637.13;4978732;28;20042;-75
2022/11/01 03:56:13;;;;;;;93.10;48.95;;;;;;;12.40;100.00;155639.72;4998299;28;20394;-74
2022/11/01 03:58:42;;;;;;;95.40;49.70;;;;;;;12.42;100.00;155644.84;5000263;28;20095;-75
2022/11/01 04:01:09;;;;;;;99.78;49.50;;;;;;;12.38;100.00;155634.56;4988973;28;20034;-74
2022/11/01 04:03:35;;;;;;;98.50;49.42;;;;;;;12.41;100.00;155640.97;4980802;28;20070;-73
2022/11/01 04:06:00;;;;;;;94.68;49.22;;;;;;;12.45;100.00;155651.25;4998619;28;20068;-73
2022/11/01 04:08:26;;;;;;;91.75;47.50;;;;;;;12.42;100.00;155644.84;4994863;28;20440;-73
2022/11/01 04:10:51;;;;;;;93.72;49.42;;;;;;;12.38;100.00;155633.28;5008163;28;20029;-74
2022/11/01 04:13:17;;;;;;;91.95;48.40;;;;;;;12.39;100.00;155637.13;5006538;28;20129;-73
2022/11/01 04:21:20;;;;;;;99.47;50.95;;;;;;;12.21;100.00;155590.91;5003316;28;20499;-75
2022/11/01 04:23:46;;;;;;;95.60;50.58;;;;;;;12.19;100.00;155585.78;4989239;28;20034;-73
2022/11/01 04:26:17;;;;;;;97.82;50.88;;;;;;;12.21;100.00;155590.91;5003385;28;20707;-73
2022/11/01 04:28:55;;;;;;;94.72;50.03;;;;;;;12.25;100.00;155602.44;5015998;28;20156;-74
2022/11/01 04:31:33;;;;;;;96.20;49.38;;;;;;;12.29;100.00;155610.19;5005007;28;20046;-74
2022/11/01 04:33:59;;;;;;;101.88;50.17;;;;;;;12.29;100.00;155610.19;4984573;28;20077;-73
2022/11/01 04:36:25;;;;;;;91.15;49.22;;;;;;;12.27;100.00;155606.31;4986153;28;20125;-74
2022/11/01 04:38:54;;;;;;;95.13;50.53;;;;;;;12.21;100.00;155590.91;4994736;28;20037;-73
2022/11/01 04:41:21;;;;;;;87.68;47.60;;;;;;;12.24;100.00;155598.59;5004254;28;20509;-74
2022/11/01 04:43:48;;;;;;;97.80;50.50;;;;;;;12.22;100.00;155594.78;5003698;28;20115;-74
2022/11/01 04:46:15;;;;;;;101.32;52.53;;;;;;;12.21;100.00;155592.19;5000622;28;20042;-74
2022/11/01 04:48:41;;;;;;;101.78;51.30;;;;;;;12.25;100.00;155602.44;4987927;28;20042;-75
2022/11/01 04:51:07;;;;;;;93.47;49.35;;;;;;;12.22;100.00;155593.47;5001392;28;20044;-75
2022/11/01 04:53:33;;;;;;;104.85;51.00;;;;;;;12.24;100.00;155598.59;4984462;28;20638;-73
2022/11/01 04:56:01;;;;;;;99.28;51.63;;;;;;;12.23;100.00;155597.31;4984053;28;20033;-73
2022/11/01 04:58:27;;;;;;;94.57;51.17;;;;;;;12.17;100.00;155581.91;5001463;28;20056;-73
2022/11/01 05:00:52;;;;;;;102.75;52.25;;;;;;;12.16;100.00;155579.34;5002020;28;20038;-75
2022/11/01 05:03:20;;;;;;;93.45;52.00;;;;;;;12.24;100.00;155599.91;5003975;28;20387;-73
2022/11/01 05:05:46;;;;;;;99.57;52.17;;;;;;;12.19;100.00;155587.06;4997075;28;20026;-74
2022/11/01 05:08:13;;;;;;;91.90;50.42;;;;;;;12.16;100.00;155579.34;5003826;28;20048;-74
2022/11/01 05:10:41;;;;;;;102.68;51.47;;;;;;;12.11;100.00;155566.53;4963670;28;20399;-74
2022/11/01 05:13:07;;;;;;;102.78;51.42;;;;;;;12.13;100.00;155571.66;5004571;28;20046;-74
2022/11/01 05:15:34;;;;;;;97.95;50.60;;;;;;;12.07;100.00;155556.22;4995010;28;20038;-74
2022/11/01 05:18:00;;;;;;;97.07;52.13;;;;;;;12.11;100.00;155566.53;5004746;28;20065;-74
2022/11/01 05:20:27;;;;;;;100.93;51.15;;;;;;;12.07;100.00;155557.53;4988621;28;20065;-74
2022/11/01 05:22:58;;;;;;;104.13;52.13;;;;;;;12.07;100.00;155557.53;5004515;28;20159;-74
2022/11/01 05:25:24;;;;;;;100.30;51.20;;;;;;;12.05;100.00;155551.06;5020731;28;20103;-74
2022/11/01 05:27:49;;;;;;;109.80;54.90;;;;;;;12.05;100.00;155551.06;4988379;28;20054;-72
2022/11/01 05:30:15;;;;;;;104.10;53.80;;;;;;;12.03;100.00;155547.22;4999118;28;20033;-75
2022/11/01 05:32:40;;;;;;;105.32;54.75;;;;;;;12.03;100.00;155545.94;4973975;28;20549;-74
2022/11/01 05:35:06;;;;;;;102.25;53.58;;;;;;;12.03;100.00;155545.94;5006985;28;20045;-74
2022/11/01 05:37:34;;;;;;;110.78;56.10;;;;;;;12.02;100.00;155544.69;5002386;28;20034;-74
2022/11/01 05:40:01;;;;;;;105.40;53.33;;;;;;;12.01;100.00;155540.81;4996474;28;20138;-75
2022/11/01 05:42:26;;;;;;;94.95;50.90;;;;;;;12.02;100.00;155543.41;5005186;28;20117;-74
2022/11/01 05:44:52;;;;;;;107.18;53.65;;;;;;;12.03;100.00;155545.94;5003293;28;20136;-75
2022/11/01 05:47:18;;;;;;;105.90;55.63;;;;;;;12.04;100.00;155548.53;5006768;28;20041;-74
2022/11/01 05:49:43;;;;;;;110.50;55.65;;;;;;;12.03;100.00;155547.22;5007805;28;20033;-75
2022/11/01 05:52:09;;;;;;;105.03;54.53;;;;;;;12.04;100.00;155548.53;4991090;28;20048;-75
2022/11/01 05:54:35;;;;;;;105.00;54.78;;;;;;;12.02;100.00;155544.69;4985338;28;20034;-74
2022/11/01 05:57:00;;;;;;;98.70;54.13;;;;;;;12.03;100.00;155547.22;5024641;28;20036;-74
2022/11/01 05:59:26;;;;;;;102.40;53.47;;;;;;;12.02;100.00;155544.69;4985994;28;20045;-75
2022/11/01 06:01:51;;;;;;;99.05;52.63;;;;;;;12.03;100.00;155545.94;5004620;28;20435;-75
2022/11/01 06:04:17;;;;;;;100.45;53.88;;;;;;;12.01;100.00;155542.09;5004634;28;20033;-75
2022/11/01 06:06:43;;;;;;;110.15;55.38;;;;;;;11.96;100.00;155527.97;4988463;28;20065;-75
2022/11/01 06:09:08;;;;;;;104.15;54.45;;;;;;;11.95;100.00;155526.69;5006301;28;20145;-74
2022/11/01 06:11:34;;;;;;;114.03;57.20;;;;;;;11.92;100.00;155517.69;5002924;28;20774;-75
2022/11/01 06:14:00;;;;;;;109.57;55.97;;;;;;;11.94;100.00;155524.16;4983502;28;20551;-74
2022/11/01 06:16:25;;;;;;;98.68;53.88;;;;;;;11.93;100.00;155521.56;5010829;28;20025;-75
2022/11/01 06:18:52;;;;;;;99.25;54.35;;;;;;;11.96;100.00;155527.97;4991828;28;20042;-74
2022/11/01 06:21:17;;;;;;;105.82;55.22;;;;;;;11.95;100.00;155525.41;5007827;28;20073;-75
2022/11/01 06:23:49;;;;;;;108.93;56.33;;;;;;;11.94;100.00;155524.16;4980820;28;20065;-75
2022/11/01 06:26:16;;;;;;;103.13;54.95;;;;;;;11.96;100.00;155529.28;5023705;28;20563;-74
2022/11/01 06:28:42;;;;;;;104.30;54.90;;;;;;;11.94;100.00;155522.81;4988867;28;20025;-75
2022/11/01 06:31:07;;;;;;;103.85;55.22;;;;;;;12.06;100.00;155553.66;5007747;28;20044;-75
2022/11/01 06:33:33;;;;;;;102.60;55.03;;;;;;;12.02;100.00;155544.69;5007506;28;20061;-75
2022/11/01 06:36:00;;;;;;;102.45;54.70;;;;;;;11.98;100.00;155534.41;4991221;28;20040;-75
2022/11/01 06:38:25;;;;;;;108.80;55.47;;;;;;;11.94;100.00;155524.16;5009778;28;20151;-75
2022/11/01 06:40:51;;;;;;;97.75;54.88;;;;;;;11.95;100.00;155526.69;4998608;28;20164;-75
2022/11/01 06:43:16;;;;;;;105.55;53.78;;;;;;;11.95;100.00;155526.69;5004081;28;20483;-75
2022/11/01 06:45:42;;;;;;;111.78;54.47;;;;;;;11.97;100.00;155530.56;5004924;28;20034;-75
2022/11/01 06:48:08;;;;;;;102.53;55.85;;;;;;;12.01;100.00;155540.81;4974100;28;20050;-74
2022/11/01 06:50:33;;;;;;;101.22;53.83;;;;;;;12.04;100.00;155549.81;4998545;28;20088;-75
2022/11/01 06:53:00;;;;;;;97.82;54.10;;;;;;;12.10;100.00;155562.66;5006862;28;20544;-74
2022/11/01 06:55:26;;;;;;;101.20;53.80;;;;;;;12.01;100.00;155540.81;5021261;28;20049;-75
2022/11/01 06:57:57;;;;;;;101.25;54.55;;;;;;;12.01;100.00;155542.09;4990035;28;20030;-74
2022/11/01 07:00:25;;;;;;;111.13;56.42;;;;;;;12.02;100.00;155543.41;5006900;28;20099;-75
2022/11/01 07:03:03;;;;;;;101.60;55.92;;;;;;;11.99;100.00;155536.94;4989281;28;20451;-75
2022/11/01 07:05:30;;;;;;;97.25;53.17;;;;;;;12.01;100.00;155542.09;4996485;28;20038;-73
2022/11/01 07:07:56;;;;;;;91.07;51.85;;;;;;;12.02;100.00;155544.69;5006831;28;20191;-73
2022/11/01 07:10:22;;;;;;;98.00;52.55;;;;;;;12.07;100.00;155557.53;5007371;28;20443;-73
2022/11/01 07:12:48;;;;;;;96.35;52.92;;;;;;;12.06;100.00;155554.94;4992154;28;20042;-73
2022/11/01 07:15:13;;;;;;;92.00;51.30;;;;;;;12.09;100.00;155561.34;5005572;28;20046;-74
2022/11/01 07:17:39;;;;;;;98.28;51.83;;;;;;;12.11;100.00;155565.22;4986608;28;20488;-75
2022/11/01 07:20:05;;;;;;;93.50;51.38;;;;;;;12.12;100.00;155567.78;4982591;28;20142;-73
2022/11/01 07:22:31;;;;;;;90.72;50.97;;;;;;;12.14;100.00;155574.19;4988038;28;20149;-73
2022/11/01 07:24:57;;;;;;;84.72;47.70;;;;;;;12.18;100.00;155583.19;4987663;28;20116;-74
2022/11/01 07:27:22;;;;;;;89.97;49.47;;;;;;;12.25;100.00;155602.44;5022482;28;20483;-74
2022/11/01 07:29:48;;;;;;;88.25;47.53;;;;;;;12.34;100.00;155622.97;4990420;28;20049;-73
2022/11/01 07:32:13;;;;;;;94.13;47.28;;;;;;;12.36;100.00;155629.44;4989115;28;20034;-73
2022/11/01 07:34:39;;;;;;;82.45;45.75;;;;;;;12.38;100.00;155634.56;5001873;28;20113;-73
2022/11/01 07:37:04;;;;;;;87.40;47.33;;;;;;;12.38;100.00;155634.56;4974867;28;20100;-73
2022/11/01 07:39:30;;;;;;;78.00;45.55;;;;;;;12.36;100.00;155628.16;4990922;28;20902;-72
2022/11/01 07:41:57;;;;;;;75.97;44.00;;;;;;;12.39;100.00;155635.84;4991444;28;20076;-73
2022/11/01 07:44:23;;;;;;;76.40;44.17;;;;;;;12.44;100.00;155648.69;4975323;28;20034;-73
2022/11/01 07:46:48;;;;;;;74.57;43.50;;;;;;;12.45;100.00;155651.25;5008901;28;20036;-74
2022/11/01 07:49:14;;;;;;;71.97;41.75;;;;;;;12.54;100.00;155673.09;5022967;28;20034;-75
2022/11/01 07:51:39;;;;;;;73.85;42.13;;;;;;;12.56;100.00;155679.50;4990377;28;20061;-75
2022/11/01 07:54:05;;;;;;;67.55;40.55;;;;;;;12.65;100.00;155701.34;4970863;28;20188;-75
2022/11/01 07:56:31;;;;;;;63.83;38.80;;;;;;;12.64;100.00;155700.09;5004642;28;20088;-75
2022/11/01 07:58:56;;;;;;;67.45;38.10;;;;;;;12.71;100.00;155715.50;4987722;28;20061;-75
2022/11/01 08:01:22;;;;;;;65.82;36.75;;;;;;;12.72;100.00;155719.34;5005822;28;20049;-74
2022/11/01 08:03:48;;;;;;;62.53;37.28;;;;;;;12.76;100.00;155728.34;4986910;28;20411;-75
2022/11/01 08:06:13;;;;;;;59.13;34.95;;;;;;;12.87;100.00;155755.34;5004030;28;20029;-74
2022/11/01 08:08:39;;;;;;;58.42;33.75;;;;;;;13.05;100.00;155801.56;4986800;28;20038;-74
2022/11/01 08:11:05;;;;;;;51.97;32.42;;;;;;;13.03;100.00;155797.75;4987130;28;20136;-74
2022/11/01 08:13:31;;;;;;;49.78;31.27;;;;;;;13.08;100.00;155808.00;4985537;28;20112;-75
2022/11/01 08:15:59;;;;;;;52.00;29.70;;;;;;;13.11;100.00;155815.69;4990745;28;20746;-74
2022/11/01 08:18:25;;;;;;;48.03;29.50;;;;;;;13.15;100.00;155827.28;4984810;28;20030;-74
2022/11/01 08:20:51;;;;;;;48.25;29.38;;;;;;;13.18;100.00;155833.69;5022784;28;20046;-74
2022/11/01 08:23:17;;;;;;;44.90;26.25;;;;;;;13.24;100.00;155850.41;4990004;28;20061;-74
2022/11/01 08:25:44;;;;;;;47.63;26.67;;;;;;;13.27;100.00;155856.81;5005623;28;20030;-74
2022/11/01 08:28:13;;;;;;;45.63;25.52;;;;;;;13.27;100.00;155855.56;5004320;28;20117;-74
2022/11/01 08:30:41;;;;;;;43.40;25.25;;;;;;;13.27;100.00;155856.81;4989511;28;20077;-74
2022/11/01 08:33:06;;;;;;;47.00;24.42;;;;;;;13.38;100.00;155885.16;5005828;28;20042;-74
2022/11/01 08:35:33;;;;;;;33.53;21.38;;;;;;;13.45;100.00;155901.88;5002894;28;20044;-74
2022/11/01 08:37:59;;;;;;;41.38;22.55;;;;;;;13.49;100.00;155912.16;4969940;28;20069;-74
2022/11/01 08:40:27;;;;;;;38.00;21.15;;;;;;;13.54;100.00;155925.03;4980479;28;20037;-74
2022/11/01 08:42:53;;;;;;;31.33;20.08;;;;;;;13.56;100.00;155928.84;4990067;28;20067;-74
2022/11/01 08:45:19;;;;;;;30.67;19.42;;;;;;;13.65;100.00;155951.97;5005617;28;20030;-74
2022/11/01 08:47:44;;;;;;;25.63;17.02;;;;;;;13.71;100.00;155966.13;5000080;28;20243;-74
2022/11/01 08:50:12;;;;;;;30.45;17.05;;;;;;;13.74;100.00;155975.13;4983095;28;20045;-74
2022/11/01 08:52:38;;;;;;;32.47;16.73;;;;;;;13.80;100.00;155990.53;5006981;28;20116;-74
2022/11/01 08:55:04;;;;;;;31.17;15.38;;;;;;;13.89;100.00;156012.41;5014650;28;20030;-75
2022/11/01 08:57:30;;;;;;;29.40;14.68;;;;;;;13.96;100.00;156030.41;5001015;28;20084;-74
2022/11/01 08:59:56;;;;;;;26.50;12.35;;;;;;;14.09;100.00;156062.56;5019251;28;20042;-74
2022/11/01 09:02:21;;;;;;;19.30;12.23;;;;;;;14.24;100.00;156098.53;4980974;28;20147;-74
2022/11/01 09:04:47;;;;;;;21.88;11.68;;;;;;;14.37;100.00;156133.28;5004688;28;20038;-74
2022/11/01 09:07:13;;;;;;;17.65;10.40;;;;;;;14.56;100.00;156180.88;4991190;28;20450;-74
2022/11/01 09:09:38;;;;;;;22.30;10.00;;;;;;;14.63;100.00;156196.34;5002977;28;20498;-74
2022/11/01 09:12:04;;;;;;;16.15;8.32;;;;;;;14.77;100.00;156233.63;4975006;28;20124;-73
2022/11/01 09:14:30;;;;;;;19.75;8.48;;;;;;;14.80;100.00;156240.06;4996097;28;20046;-74
2022/11/01 09:16:55;;;;;;;15.90;7.38;;;;;;;14.83;100.00;156246.50;5002923;28;20045;-73
2022/11/01 09:19:21;;;;;;;16.85;7.78;;;;;;;14.81;100.00;156242.66;5011850;28;20041;-73
2022/11/01 09:21:47;;;;;;;13.10;6.93;;;;;;;14.89;100.00;156263.22;4977712;28;20495;-74
2022/11/01 09:24:16;;;;;;;13.77;6.57;;;;;;;15.01;100.00;156292.78;4994446;28;20046;-74
2022/11/01 09:26:42;;;;;;;17.98;6.90;;;;;;;15.09;100.00;156312.13;4983147;28;20041;-74
2022/11/01 09:29:09;;;;;;;12.45;6.38;;;;;;;15.22;100.00;156345.56;5008311;28;20042;-74
2022/11/01 09:31:35;;;;;;;14.43;6.03;;;;;;;15.30;100.00;156364.88;4993538;28;20030;-74
2022/11/01 09:34:00;;;;;;;15.38;6.85;;;;;;;15.37;100.00;156384.16;4991392;28;20044;-72
2022/11/01 09:36:27;;;;;;;15.00;6.38;;;;;;;15.46;100.00;156406.00;5008333;28;20064;-74
2022/11/01 09:38:54;;;;;;;17.10;6.07;;;;;;;15.55;100.00;156429.19;5008932;28;20685;-74
2022/11/01 09:41:31;;;;;;;11.32;5.65;;;;;;;15.63;100.00;156447.19;4976478;28;20054;-74
2022/11/01 09:44:00;;;;;;;13.80;5.30;;;;;;;15.71;100.00;156467.81;4992284;28;20041;-74
2022/11/01 09:46:30;;;;;;;15.95;5.18;;;;;;;15.75;100.00;156479.44;5000004;28;20034;-75
2022/11/01 09:48:59;;;;;;;10.85;5.07;;;;;;;15.80;100.00;156489.72;4992821;28;20845;-74
2022/11/01 09:51:25;;;;;;;12.57;5.10;;;;;;;15.78;100.00;156485.84;5008606;28;20033;-75
2022/11/01 09:53:59;;;;;;;10.38;4.10;;;;;;;15.80;100.00;156491.00;5008024;28;20041;-75
2022/11/01 09:56:40;;;;;;;10.77;4.90;;;;;;;15.84;100.00;156500.00;5003307;28;20105;-75
2022/11/01 09:59:17;;;;;;;15.35;4.57;;;;;;;15.80;100.00;156491.00;5004357;28;20033;-75
2022/11/01 10:02:01;;;;;;;13.30;4.00;;;;;;;15.81;100.00;156493.59;4991963;28;20057;-74
2022/11/01 10:05:04;;;;;;;11.32;4.38;;;;;;;15.84;100.00;156500.00;5012278;28;20035;-75
2022/11/01 10:07:39;;;;;;;13.52;4.45;;;;;;;15.75;100.00;156478.16;4981720;28;20041;-75
2022/11/01 10:10:25;;;;;;;11.27;4.00;;;;;;;15.76;100.00;156480.72;4972913;28;20523;-74
2022/11/01 10:13:00;;;;;;;9.18;4.03;;;;;;;15.79;100.00;156488.44;5007838;28;20034;-74
2022/11/01 10:15:38;;;;;;;12.70;4.30;;;;;;;15.81;100.00;156493.59;5009027;28;20038;-73
2022/11/01 10:18:19;;;;;;;10.57;3.92;;;;;;;15.82;100.00;156494.88;5003091;28;20046;-74
2022/11/01 10:20:45;;;;;;;10.13;4.25;;;;;;;15.83;100.00;156497.47;5007037;28;20095;-73
2022/11/01 10:23:15;;;;;;;10.57;3.85;;;;;;;15.75;100.00;156479.44;5005489;28;20042;-74
2022/11/01 10:25:47;;;;;;;9.48;4.32;;;;;;;15.76;100.00;156480.72;4987929;28;20022;-74
2022/11/01 10:28:49;;;;;;;12.48;3.92;;;;;;;15.75;100.00;156478.16;4971970;28;20054;-74
2022/11/01 10:31:20;;;;;;;11.00;4.13;;;;;;;15.71;100.00;156467.81;4966627;28;20046;-75
2022/11/01 10:34:01;;;;;;;15.27;4.13;;;;;;;15.67;100.00;156458.81;4987948;28;20049;-75
2022/11/01 10:36:36;;;;;;;8.05;4.00;;;;;;;15.62;100.00;156445.94;4999299;28;20060;-73
2022/11/01 10:39:29;;;;;;;12.02;4.28;;;;;;;15.54;100.00;156425.34;5014776;28;20044;-74
2022/11/01 10:41:54;;;;;;;14.38;3.88;;;;;;;15.47;100.00;156407.34;5000237;28;20041;-74
2022/11/01 10:44:29;;;;;;;8.48;3.83;;;;;;;15.48;100.00;156409.88;4999236;28;20439;-74
2022/11/01 10:46:58;;;;;;;9.60;3.85;;;;;;;15.67;100.00;156457.47;5007965;28;20033;-74
2022/11/01 10:49:40;;;;;;;7.35;3.70;;;;;;;16.13;100.00;156574.69;5006588;28;20041;-74
2022/11/01 10:52:07;;;;;;;;;;;;;;;16.52;100.00;156672.53;5007475;28;20041;-74
2022/11/01 10:54:36;;;;;;;9.43;3.25;;;;;;;16.71;100.00;156720.16;5009561;28;19920;-72
2022/11/01 10:57:08;;;;;;;7.95;3.13;;;;;;;17.07;100.00;156810.38;5020494;28;20034;-73
2022/11/01 10:59:41;;;;;;;7.70;3.17;;;;;;;17.32;100.00;156873.47;5002282;28;20080;-73
2022/11/01 11:02:32;;;;;;;8.32;3.20;;;;;;;17.51;100.00;156921.13;5006799;28;20045;-74
2022/11/01 11:04:58;;;;;;;11.10;3.28;;;;;;;17.65;100.00;156954.63;5006857;28;20087;-74
2022/11/01 11:07:28;;;;;;;7.78;2.47;;;;;;;17.69;97.52;156966.25;4999005;28;20033;-74
2022/11/01 11:09:54;;;;;;;7.07;2.75;;;;;;;17.79;97.41;156989.44;4991568;28;20115;-74
2022/11/01 11:12:22;;;;;;;6.28;2.35;;;;;;;17.93;97.64;157025.53;4973370;28;20038;-75
2022/11/01 11:15:14;;;;;;;7.75;2.15;;;;;;;18.08;93.69;157062.91;5007284;28;20092;-74
2022/11/01 11:17:43;;;;;;;4.65;2.58;;;;;;;18.02;95.91;157048.75;5007863;28;20034;-75